createdAt,value
2023-05-08T00:03:10.467Z,99790.07
2023-05-08T00:06:28.492Z,99789.35
2023-05-08T00:09:45.599Z,99799.70
2023-05-08T00:13:02.357Z,99797.68
2023-05-08T00:16:19.019Z,99805.13
2023-05-08T00:19:35.509Z,99808.39
2023-05-08T00:22:51.775Z,99805.03
2023-05-08T00:26:08.397Z,99804.21
2023-05-08T00:29:24.594Z,99799.08
2023-05-08T00:32:41.065Z,99802.94
2023-05-08T00:35:58.439Z,99804.71
2023-05-08T00:39:15.765Z,99805.43
2023-05-08T00:42:32.151Z,99808.20
2023-05-08T00:45:50.272Z,99813.95
2023-05-08T00:49:06.954Z,99809.25
2023-05-08T00:52:24.260Z,99814.65
2023-05-08T00:55:43.769Z,99814.91
2023-05-08T00:59:00.867Z,99817.77
2023-05-08T01:02:19.919Z,99820.41
2023-05-08T01:05:37.766Z,99820.41
2023-05-08T01:08:54.751Z,99825.53
2023-05-08T01:12:20.555Z,99832.25
2023-05-08T01:15:44.042Z,99830.56
2023-05-08T01:19:07.416Z,99829.48
2023-05-08T01:22:32.573Z,99828.53
2023-05-08T01:26:42.265Z,99831.16
2023-05-08T01:30:31.137Z,99830.30
2023-05-08T01:33:56.409Z,99836.30
2023-05-08T01:37:17.154Z,99834.62
2023-05-08T01:40:41.053Z,99831.03
2023-05-08T01:44:03.392Z,99838.10
2023-05-08T01:47:22.646Z,99834.52
2023-05-08T01:50:47.116Z,99830.93
2023-05-08T01:54:09.355Z,99832.88
2023-05-08T01:57:27.720Z,99837.15
2023-05-08T02:00:46.316Z,99830.70
2023-05-08T02:04:04.596Z,99837.52
2023-05-08T02:07:21.377Z,99829.35
2023-05-08T02:10:38.800Z,99839.78
2023-05-08T02:13:57.968Z,99838.10
2023-05-08T02:17:16.932Z,99844.55
2023-05-08T02:20:34.691Z,99834.75
2023-05-08T02:23:51.788Z,99838.20
2023-05-08T02:27:09.011Z,99843.37
2023-05-08T02:30:27.888Z,99835.70
2023-05-08T02:33:44.924Z,99843.73
2023-05-08T02:37:02.749Z,99840.99
2023-05-08T02:40:24.005Z,99838.36
2023-05-08T02:43:40.624Z,99856.55
2023-05-08T02:47:07.008Z,99852.86
2023-05-08T02:50:29.633Z,99853.34
2023-05-08T02:53:51.463Z,99863.27
2023-05-08T02:57:14.956Z,99854.91
2023-05-08T03:00:36.018Z,99859.09
2023-05-08T03:03:58.667Z,99859.45
2023-05-08T03:07:16.152Z,99855.40
2023-05-08T03:10:38.055Z,99861.48
2023-05-08T03:13:56.350Z,99856.58
2023-05-08T03:17:16.649Z,99855.02
2023-05-08T03:20:36.894Z,99860.41
2023-05-08T03:23:55.993Z,99856.95
2023-05-08T03:27:14.296Z,99860.63
2023-05-08T03:30:31.905Z,99851.32
2023-05-08T03:33:51.642Z,99855.63
2023-05-08T03:37:08.174Z,99865.20
2023-05-08T03:40:24.995Z,99861.71
2023-05-08T03:43:41.935Z,99876.80
2023-05-08T03:47:00.980Z,99863.73
2023-05-08T03:50:18.928Z,99872.48
2023-05-08T03:53:36.707Z,99868.52
2023-05-08T03:56:53.521Z,99863.27
2023-05-08T04:00:16.992Z,99877.86
2023-05-08T04:03:42.254Z,99878.09
2023-05-08T04:07:02.638Z,99881.92
2023-05-08T04:10:26.833Z,99886.70
2023-05-08T04:13:49.454Z,99885.62
2023-05-08T04:17:11.829Z,99883.33
2023-05-08T04:20:31.996Z,99892.90
2023-05-08T04:23:49.886Z,99905.91
2023-05-08T04:27:08.189Z,99911.77
2023-05-08T04:30:25.748Z,99908.80
2023-05-08T04:33:44.134Z,99906.04
2023-05-08T04:37:02.466Z,99919.19
2023-05-08T04:40:20.924Z,99940.55
2023-05-08T04:43:37.644Z,99921.81
2023-05-08T04:46:55.232Z,99926.22
2023-05-08T04:50:12.832Z,99924.10
2023-05-08T04:53:30.566Z,99942.59
2023-05-08T04:56:46.803Z,99935.19
2023-05-08T05:00:06.065Z,99944.42
2023-05-08T05:03:24.144Z,99937.48
2023-05-08T05:06:40.482Z,99947.88
2023-05-08T05:09:57.017Z,99946.58
2023-05-08T05:13:13.557Z,99956.16
2023-05-08T05:16:30.062Z,99953.40
2023-05-08T05:19:46.431Z,99953.75
2023-05-08T05:23:02.842Z,99962.38
2023-05-08T05:26:19.638Z,99964.88
2023-05-08T05:29:36.220Z,99971.82
2023-05-08T05:32:53.662Z,99962.50
2023-05-08T05:36:19.773Z,99971.82
2023-05-08T05:39:36.853Z,99974.33
2023-05-08T05:42:57.897Z,99964.19
2023-05-08T05:46:18.894Z,99976.27
2023-05-08T05:49:35.348Z,99973.17
2023-05-08T05:52:52.053Z,99970.66
2023-05-08T05:56:08.550Z,99973.05
2023-05-08T05:59:24.791Z,99986.45
2023-05-08T06:02:42.539Z,99984.52
2023-05-08T06:06:02.132Z,99996.25
2023-05-08T06:09:23.155Z,99991.47
2023-05-08T06:12:45.854Z,99992.06
2023-05-08T06:16:04.446Z,99994.57
2023-05-08T06:19:22.046Z,99999.23
2023-05-08T06:22:38.653Z,100007.03
2023-05-08T06:25:58.797Z,100012.52
2023-05-08T06:29:15.089Z,100010.02
2023-05-08T06:32:33.129Z,100025.33
2023-05-08T06:35:50.055Z,100017.08
2023-05-08T06:39:06.514Z,100016.60
2023-05-08T06:42:22.780Z,100020.91
2023-05-08T06:45:39.278Z,100022.80
2023-05-08T06:48:55.574Z,100021.10
2023-05-08T06:52:13.001Z,100026.03
2023-05-08T06:55:29.712Z,100028.02
2023-05-08T06:58:56.544Z,100032.84
2023-05-08T07:02:04.540Z,100040.38
2023-05-08T07:05:21.327Z,100030.54
2023-05-08T07:08:37.806Z,100039.68
2023-05-08T07:11:54.238Z,100040.47
2023-05-08T07:15:24.759Z,100038.08
2023-05-08T07:18:27.719Z,100034.43
2023-05-08T07:21:45.014Z,100049.83
2023-05-08T07:25:03.061Z,100044.60
2023-05-08T07:28:19.660Z,100039.45
2023-05-08T07:31:36.148Z,100050.67
2023-05-08T07:34:52.724Z,100050.80
2023-05-08T07:38:09.028Z,100043.27
2023-05-08T07:41:27.449Z,100052.31
2023-05-08T07:44:53.644Z,100062.78
2023-05-08T07:48:04.498Z,100068.16
2023-05-08T07:51:21.340Z,100060.25
2023-05-08T07:54:37.857Z,100060.54
2023-05-08T07:57:54.696Z,100055.61
2023-05-08T08:01:11.267Z,100060.59
2023-05-08T08:04:28.574Z,100062.09
2023-05-08T08:11:04.170Z,100048.78
2023-05-08T08:14:20.586Z,100048.64
2023-05-08T08:17:37.592Z,100050.28
2023-05-08T08:20:54.248Z,100056.98
2023-05-08T08:24:11.066Z,100053.45
2023-05-08T08:27:27.605Z,100060.16
2023-05-08T08:30:43.929Z,100054.20
2023-05-08T08:34:00.634Z,100058.20
2023-05-08T08:37:17.184Z,100048.64
2023-05-08T08:40:33.947Z,100059.92
2023-05-08T08:43:51.774Z,100055.61
2023-05-08T08:47:09.578Z,100058.58
2023-05-08T08:50:28.155Z,100062.08
2023-05-08T08:53:49.157Z,100056.22
2023-05-08T08:57:08.950Z,100054.40
2023-05-08T09:00:28.999Z,100068.64
2023-05-08T09:03:46.772Z,100066.20
2023-05-08T09:07:05.747Z,100053.41
2023-05-08T09:10:22.599Z,100056.87
2023-05-08T09:13:41.860Z,100061.59
2023-05-08T09:16:58.580Z,100059.95
2023-05-08T09:20:18.991Z,100068.30
2023-05-08T09:23:35.348Z,100065.66
2023-05-08T09:26:52.344Z,100070.80
2023-05-08T09:30:15.320Z,100074.81
2023-05-08T09:33:34.497Z,100073.84
2023-05-08T09:36:51.410Z,100061.59
2023-05-08T09:40:25.608Z,100077.34
2023-05-08T09:43:42.979Z,100073.28
2023-05-08T09:46:59.752Z,100073.70
2023-05-08T09:50:18.633Z,100066.63
2023-05-08T09:53:42.367Z,100068.67
2023-05-08T09:56:59.418Z,100081.77
2023-05-08T10:00:19.853Z,100078.56
2023-05-08T10:03:53.575Z,100074.67
2023-05-08T10:07:11.046Z,100082.00
2023-05-08T10:10:33.576Z,100079.90
2023-05-08T10:13:50.911Z,100070.99
2023-05-08T10:17:10.837Z,100063.62
2023-05-08T10:20:28.784Z,100065.70
2023-05-08T10:23:48.136Z,100085.48
2023-05-08T10:27:07.566Z,100072.25
2023-05-08T10:30:29.870Z,100079.06
2023-05-08T10:33:50.935Z,100075.45
2023-05-08T10:37:07.597Z,100067.92
2023-05-08T10:40:25.293Z,100067.38
2023-05-08T10:43:42.724Z,100055.69
2023-05-08T10:47:05.884Z,100061.95
2023-05-08T10:50:42.768Z,100057.92
2023-05-08T10:54:05.528Z,100055.69
2023-05-08T10:57:25.327Z,100054.30
2023-05-08T11:01:07.298Z,100056.51
2023-05-08T11:04:31.829Z,100053.25
2023-05-08T11:08:05.306Z,100060.88
2023-05-08T11:11:32.982Z,100055.91
2023-05-08T11:14:54.370Z,100046.41
2023-05-08T11:18:14.724Z,100059.20
2023-05-08T11:21:31.613Z,100046.66
2023-05-08T11:24:54.753Z,100048.33
2023-05-08T11:28:23.884Z,100041.69
2023-05-08T11:32:00.867Z,100052.13
2023-05-08T11:35:20.930Z,100041.51
2023-05-08T11:38:44.391Z,100050.83
2023-05-08T11:42:00.825Z,100039.66
2023-05-08T11:45:20.332Z,100048.18
2023-05-08T11:48:36.875Z,100034.91
2023-05-08T11:51:56.235Z,100041.53
2023-05-08T11:55:12.494Z,100037.76
2023-05-08T11:58:29.048Z,100038.89
2023-05-08T12:01:53.499Z,100033.19
2023-05-08T12:05:04.148Z,100032.06
2023-05-08T12:08:21.997Z,100048.78
2023-05-08T12:11:43.355Z,100034.02
2023-05-08T12:15:01.801Z,100031.25
2023-05-08T12:18:18.143Z,100034.56
2023-05-08T12:21:34.762Z,100035.80
2023-05-08T12:24:51.940Z,100037.17
2023-05-08T12:28:09.726Z,100035.45
2023-05-08T12:31:26.213Z,100029.13
2023-05-08T12:34:43.433Z,100021.38
2023-05-08T12:38:01.207Z,100022.84
2023-05-08T12:41:18.454Z,100021.94
2023-05-08T12:44:35.516Z,100021.12
2023-05-08T12:47:57.305Z,100023.52
2023-05-08T12:51:16.557Z,100023.61
2023-05-08T12:54:42.114Z,100028.91
2023-05-08T12:58:06.793Z,100037.16
2023-05-08T13:01:23.426Z,100028.22
2023-05-08T13:04:44.006Z,100015.22
2023-05-08T13:08:06.498Z,100016.73
2023-05-08T13:11:26.677Z,100013.11
2023-05-08T13:14:44.296Z,100021.44
2023-05-08T13:18:02.798Z,100023.81
2023-05-08T13:21:21.282Z,100029.68
2023-05-08T13:24:38.000Z,100026.65
2023-05-08T13:27:54.502Z,100017.40
2023-05-08T13:31:11.186Z,100014.68
2023-05-08T13:34:27.791Z,100011.65
2023-05-08T13:37:47.636Z,100017.08
2023-05-08T13:41:04.019Z,100019.19
2023-05-08T13:44:20.577Z,100023.33
2023-05-08T13:47:37.893Z,100013.38
2023-05-08T13:50:56.291Z,100006.55
2023-05-08T13:54:12.776Z,100004.67
2023-05-08T13:57:29.869Z,100001.96
2023-05-08T14:00:46.591Z,100007.89
2023-05-08T14:04:04.194Z,100007.83
2023-05-08T14:07:21.750Z,100012.00
2023-05-08T14:10:39.757Z,99997.66
2023-05-08T14:13:56.205Z,100003.34
2023-05-08T14:17:14.423Z,99996.40
2023-05-08T14:20:31.136Z,100008.59
2023-05-08T14:23:47.498Z,100001.48
2023-05-08T14:27:06.933Z,100007.11
2023-05-08T14:30:25.632Z,99993.84
2023-05-08T14:33:42.848Z,100001.05
2023-05-08T14:37:04.602Z,99994.48
2023-05-08T14:40:23.337Z,99993.59
2023-05-08T14:43:39.741Z,99996.98
2023-05-08T14:46:58.186Z,100003.75
2023-05-08T14:50:16.397Z,100003.34
2023-05-08T14:53:33.176Z,100004.64
2023-05-08T14:56:49.777Z,100014.05
2023-05-08T15:00:07.118Z,100009.98
2023-05-08T15:03:23.701Z,100014.08
2023-05-08T15:06:41.314Z,100004.61
2023-05-08T15:09:58.104Z,100007.70
2023-05-08T15:13:14.775Z,100007.27
2023-05-08T15:16:31.241Z,100003.76
2023-05-08T15:19:50.987Z,100004.45
2023-05-08T15:23:07.252Z,99999.69
2023-05-08T15:26:23.635Z,99992.39
2023-05-08T15:29:40.584Z,99990.02
2023-05-08T15:32:57.011Z,99983.05
2023-05-08T15:36:14.477Z,99988.19
2023-05-08T15:39:31.055Z,99995.33
2023-05-08T15:42:47.478Z,99996.69
2023-05-08T15:46:03.826Z,99992.67
2023-05-08T15:49:20.287Z,99994.48
2023-05-08T15:52:37.726Z,99991.16
2023-05-08T15:55:57.481Z,99990.44
2023-05-08T15:59:14.103Z,99989.23
2023-05-08T16:02:30.777Z,99983.24
2023-05-08T16:05:47.426Z,99983.14
2023-05-08T16:09:03.806Z,99980.81
2023-05-08T16:12:20.711Z,99965.56
2023-05-08T16:15:37.111Z,99957.61
2023-05-08T16:18:53.611Z,99956.09
2023-05-08T16:22:10.316Z,99968.53
2023-05-08T16:25:27.191Z,99967.30
2023-05-08T16:28:43.596Z,99969.13
2023-05-08T16:31:59.927Z,99972.09
2023-05-08T16:35:17.984Z,99978.66
2023-05-08T16:38:34.866Z,99963.61
2023-05-08T16:41:52.394Z,99975.19
2023-05-08T16:45:09.177Z,99968.05
2023-05-08T16:48:25.469Z,99974.59
2023-05-08T16:51:42.448Z,99975.51
2023-05-08T16:55:01.472Z,99972.55
2023-05-08T16:58:18.602Z,99967.93
2023-05-08T17:01:35.248Z,99981.03
2023-05-08T17:04:52.428Z,99979.36
2023-05-08T17:08:09.344Z,99970.59
2023-05-08T17:11:25.757Z,99965.28
2023-05-08T17:14:43.538Z,99973.52
2023-05-08T17:17:59.901Z,99960.42
2023-05-08T17:21:16.850Z,99973.14
2023-05-08T17:24:33.368Z,99974.28
2023-05-08T17:27:49.797Z,99981.03
2023-05-08T17:31:06.184Z,99982.16
2023-05-08T17:34:23.593Z,99979.80
2023-05-08T17:37:40.044Z,99982.65
2023-05-08T17:40:57.508Z,99980.70
2023-05-08T17:44:15.364Z,99979.02
2023-05-08T17:47:34.728Z,99980.00
2023-05-08T17:50:48.899Z,99976.58
2023-05-08T17:54:05.188Z,99978.84
2023-05-08T17:57:21.472Z,99964.89
2023-05-08T18:00:38.587Z,99974.80
2023-05-08T18:03:55.250Z,99978.57
2023-05-08T18:07:12.398Z,99974.55
2023-05-08T18:10:29.727Z,99978.88
2023-05-08T18:13:46.105Z,99982.50
2023-05-08T18:17:02.528Z,99985.31
2023-05-08T18:20:21.884Z,99988.78
2023-05-08T18:23:38.526Z,99985.58
2023-05-08T18:26:55.752Z,99993.53
2023-05-08T18:30:13.997Z,99988.93
2023-05-08T18:33:30.842Z,99986.28
2023-05-08T18:36:47.200Z,99990.06
2023-05-08T18:40:04.006Z,99995.63
2023-05-08T18:43:20.221Z,100001.38
2023-05-08T18:46:36.721Z,100002.09
2023-05-08T18:49:53.331Z,99994.44
2023-05-08T18:53:10.740Z,99998.22
2023-05-08T18:56:29.682Z,99996.70
2023-05-08T18:59:51.019Z,99998.80
2023-05-08T19:03:10.448Z,100013.97
2023-05-08T19:06:26.936Z,100009.95
2023-05-08T19:09:43.979Z,100011.23
2023-05-08T19:13:02.106Z,100008.03
2023-05-08T19:16:18.725Z,100006.77
2023-05-08T19:19:35.690Z,100002.46
2023-05-08T19:22:52.186Z,100010.44
2023-05-08T19:26:11.174Z,100010.00
2023-05-08T19:29:28.966Z,100009.17
2023-05-08T19:32:45.450Z,100005.41
2023-05-08T19:36:01.728Z,100000.83
2023-05-08T19:39:18.601Z,100005.86
2023-05-08T19:42:35.224Z,100007.53
2023-05-08T19:45:51.965Z,100005.85
2023-05-08T19:49:08.380Z,100001.53
2023-05-08T19:52:27.646Z,99993.16
2023-05-08T19:55:53.592Z,99995.38
2023-05-08T19:59:09.876Z,99991.20
2023-05-08T20:02:26.333Z,99986.47
2023-05-08T20:05:42.796Z,99984.63
2023-05-08T20:08:59.461Z,99978.10
2023-05-08T20:12:16.243Z,99986.58
2023-05-08T20:15:32.435Z,99981.38
2023-05-08T20:18:49.584Z,99981.81
2023-05-08T20:22:08.584Z,99973.57
2023-05-08T20:25:27.007Z,99975.53
2023-05-08T20:28:43.402Z,99974.97
2023-05-08T20:32:00.626Z,99965.08
2023-05-08T20:35:20.875Z,99971.72
2023-05-08T20:38:44.385Z,99964.33
2023-05-08T20:42:02.300Z,99966.01
2023-05-08T20:45:20.963Z,99964.29
2023-05-08T20:48:39.992Z,99965.14
2023-05-08T20:51:59.868Z,99967.89
2023-05-08T20:55:24.205Z,99967.33
2023-05-08T20:58:51.935Z,99963.28
2023-05-08T21:02:08.679Z,99960.35
2023-05-08T21:05:29.300Z,99962.23
2023-05-08T21:08:49.380Z,99958.44
2023-05-08T21:12:03.613Z,99948.55
2023-05-08T21:15:20.183Z,99950.36
2023-05-08T21:18:36.535Z,99947.39
2023-05-08T21:21:52.898Z,99946.70
2023-05-08T21:25:09.371Z,99948.77
2023-05-08T21:28:25.889Z,99943.87
2023-05-08T21:31:42.874Z,99943.56
2023-05-08T21:34:59.378Z,99948.39
2023-05-08T21:38:17.150Z,99949.01
2023-05-08T21:41:33.869Z,99943.73
2023-05-08T21:44:50.530Z,99943.73
2023-05-08T21:48:08.512Z,99938.73
2023-05-08T21:51:24.777Z,99942.70
2023-05-08T21:54:41.113Z,99937.94
2023-05-08T21:57:57.794Z,99933.18
2023-05-08T22:01:14.246Z,99936.09
2023-05-08T22:04:30.601Z,99934.55
2023-05-08T22:07:48.363Z,99931.91
2023-05-08T22:11:04.521Z,99930.60
2023-05-08T22:14:20.791Z,99920.56
2023-05-08T22:17:37.588Z,99917.93
2023-05-08T22:20:55.972Z,99920.70
2023-05-08T22:24:16.193Z,99920.83
2023-05-08T22:27:32.487Z,99919.53
2023-05-08T22:30:48.798Z,99923.25
2023-05-08T22:34:05.324Z,99922.43
2023-05-08T22:37:22.903Z,99916.57
2023-05-08T22:40:39.179Z,99909.99
2023-05-08T22:43:55.714Z,99910.98
2023-05-08T22:47:12.852Z,99899.85
2023-05-08T22:50:29.552Z,99897.82
2023-05-08T22:53:48.760Z,99896.51
2023-05-08T22:57:04.991Z,99903.82
2023-05-08T23:00:23.908Z,99899.05
2023-05-08T23:03:40.327Z,99904.58
2023-05-08T23:06:56.945Z,99906.22
2023-05-08T23:10:15.095Z,99899.91
2023-05-08T23:13:33.972Z,99901.38
2023-05-08T23:16:52.453Z,99907.34
2023-05-08T23:20:09.166Z,99902.82
2023-05-08T23:23:25.405Z,99901.97
2023-05-08T23:26:42.357Z,99897.67
2023-05-08T23:29:58.864Z,99894.22
2023-05-08T23:33:15.270Z,99899.74
2023-05-08T23:36:32.907Z,99896.03
2023-05-08T23:39:49.420Z,99891.27
2023-05-08T23:43:07.074Z,99896.62
2023-05-08T23:46:23.401Z,99889.11
2023-05-08T23:49:40.394Z,99879.28
2023-05-08T23:52:57.127Z,99875.23
2023-05-08T23:56:14.180Z,99870.32
2023-05-08T23:59:30.497Z,99872.95
